createdAt,value
2018-05-13T00:00:12.421Z,18.32
2018-05-13T00:00:53.729Z,18.23
2018-05-13T00:01:34.374Z,18.21
2018-05-13T00:02:14.903Z,18.27
2018-05-13T00:02:55.424Z,18.21
2018-05-13T00:03:35.953Z,18.21
2018-05-13T00:04:16.483Z,18.15
2018-05-13T00:04:57.729Z,18.14
2018-05-13T00:05:37.533Z,18.14
2018-05-13T00:06:18.056Z,18.1
2018-05-13T00:06:58.589Z,18.12
2018-05-13T00:07:39.115Z,18.11
2018-05-13T00:08:19.639Z,18.05
2018-05-13T00:09:01.467Z,18.11
2018-05-13T00:09:41.994Z,18.07
2018-05-13T00:10:22.523Z,18.03
2018-05-13T00:11:03.126Z,18.05
2018-05-13T00:11:43.584Z,18.05
2018-05-13T00:12:24.115Z,18.11
2018-05-13T00:13:04.672Z,18
2018-05-13T00:13:45.122Z,18.07
2018-05-13T00:14:25.645Z,18.05
2018-05-13T00:15:06.169Z,17.99
2018-05-13T00:15:46.701Z,18
2018-05-13T00:16:27.220Z,17.97
2018-05-13T00:17:08.234Z,17.92
2018-05-13T00:17:48.273Z,17.9
2018-05-13T00:18:28.803Z,17.86
2018-05-13T00:19:09.332Z,17.87
2018-05-13T00:19:49.858Z,17.92
2018-05-13T00:20:30.387Z,17.89
2018-05-13T00:21:11.466Z,17.82
2018-05-13T00:21:51.987Z,17.9
2018-05-13T00:22:32.519Z,17.9
2018-05-13T00:23:13.051Z,17.86
2018-05-13T00:23:54.261Z,17.82
2018-05-13T00:24:34.120Z,17.87
2018-05-13T00:25:14.649Z,17.79
2018-05-13T00:25:55.180Z,17.82
2018-05-13T00:26:35.709Z,17.86
2018-05-13T00:27:16.240Z,17.81
2018-05-13T00:27:56.772Z,17.77
2018-05-13T00:28:38.193Z,17.84
2018-05-13T00:29:19.586Z,17.79
2018-05-13T00:30:00.114Z,17.59
2018-05-13T00:30:40.647Z,17.77
2018-05-13T00:31:21.179Z,17.78
2018-05-13T00:32:01.707Z,17.77
2018-05-13T00:32:42.737Z,17.74
2018-05-13T00:33:22.825Z,17.72
2018-05-13T00:34:03.266Z,17.75
2018-05-13T00:34:43.800Z,17.75
2018-05-13T00:35:24.324Z,17.71
2018-05-13T00:36:04.855Z,17.62
2018-05-13T00:36:45.388Z,17.62
2018-05-13T00:37:25.918Z,17.72
2018-05-13T00:38:06.443Z,17.71
2018-05-13T00:38:46.969Z,17.58
2018-05-13T00:39:27.502Z,17.63
2018-05-13T00:40:08.026Z,17.64
2018-05-13T00:40:48.542Z,17.62
2018-05-13T00:41:29.070Z,17.66
2018-05-13T00:42:09.583Z,17.58
2018-05-13T00:42:50.110Z,17.58
2018-05-13T00:43:30.637Z,17.55
2018-05-13T00:44:11.169Z,17.56
2018-05-13T00:44:51.699Z,17.62
2018-05-13T00:45:32.230Z,17.59
2018-05-13T00:46:13.239Z,17.54
2018-05-13T00:46:54.240Z,17.52
2018-05-13T00:47:33.804Z,17.58
2018-05-13T00:48:15.239Z,17.55
2018-05-13T00:48:54.865Z,17.51
2018-05-13T00:49:35.395Z,17.56
2018-05-13T00:50:15.914Z,17.54
2018-05-13T00:50:56.429Z,17.51
2018-05-13T00:51:36.949Z,17.51
2018-05-13T00:52:17.479Z,17.49
2018-05-13T00:52:58.010Z,17.52
2018-05-13T00:53:38.543Z,17.52
2018-05-13T00:54:19.066Z,17.51
2018-05-13T00:54:59.598Z,17.49
2018-05-13T00:55:40.121Z,17.46
2018-05-13T00:56:20.651Z,17.51
2018-05-13T00:57:01.184Z,17.44
2018-05-13T00:57:42.262Z,17.51
2018-05-13T00:58:22.790Z,17.46
2018-05-13T00:59:03.315Z,17.51
2018-05-13T00:59:43.848Z,17.49
2018-05-13T01:00:24.382Z,17.46
2018-05-13T01:01:04.913Z,17.44
2018-05-13T01:01:45.425Z,17.54
2018-05-13T01:02:26.507Z,17.54
2018-05-13T01:03:07.031Z,17.49
2018-05-13T01:03:47.563Z,17.48
2018-05-13T01:04:28.096Z,17.46
2018-05-13T01:05:09.878Z,17.51
2018-05-13T01:05:50.410Z,17.55
2018-05-13T01:06:31.697Z,17.55
2018-05-13T01:07:12.747Z,17.52
2018-05-13T01:07:52.733Z,17.55
2018-05-13T01:08:33.259Z,17.51
2018-05-13T01:09:13.791Z,17.56
2018-05-13T01:09:54.311Z,17.58
2018-05-13T01:10:35.680Z,17.46
2018-05-13T01:11:16.204Z,17.54
2018-05-13T01:11:56.774Z,17.54
2018-05-13T01:12:38.191Z,17.52
2018-05-13T01:13:19.742Z,17.55
2018-05-13T01:13:59.232Z,17.54
2018-05-13T01:14:39.777Z,17.51
2018-05-13T01:15:20.501Z,17.51
2018-05-13T01:16:01.032Z,17.52
2018-05-13T01:16:41.556Z,17.58
2018-05-13T01:17:22.083Z,17.54
2018-05-13T01:18:02.601Z,17.54
2018-05-13T01:18:43.121Z,17.54
2018-05-13T01:19:23.646Z,17.52
2018-05-13T01:20:04.169Z,17.59
2018-05-13T01:20:44.699Z,17.51
2018-05-13T01:21:25.225Z,17.46
2018-05-13T01:22:05.751Z,17.56
2018-05-13T01:22:46.283Z,17.54
2018-05-13T01:23:26.804Z,17.51
2018-05-13T01:24:07.322Z,17.54
2018-05-13T01:24:47.847Z,17.58
2018-05-13T01:25:28.380Z,17.48
2018-05-13T01:26:08.915Z,17.55
2018-05-13T01:26:50.245Z,17.55
2018-05-13T01:27:29.970Z,17.52
2018-05-13T01:28:10.495Z,17.52
2018-05-13T01:28:51.914Z,17.54
2018-05-13T01:29:32.440Z,17.51
2018-05-13T01:30:12.973Z,17.54
2018-05-13T01:30:53.498Z,17.56
2018-05-13T01:31:34.029Z,17.49
2018-05-13T01:32:14.547Z,17.51
2018-05-13T01:32:55.072Z,17.51
2018-05-13T01:33:35.599Z,17.52
2018-05-13T01:34:16.130Z,17.49
2018-05-13T01:34:56.659Z,17.55
2018-05-13T01:35:37.191Z,17.44
2018-05-13T01:36:17.712Z,17.55
2018-05-13T01:36:58.243Z,17.55
2018-05-13T01:37:38.773Z,17.54
2018-05-13T01:38:19.288Z,17.52
2018-05-13T01:38:59.820Z,17.56
2018-05-13T01:39:40.334Z,17.54
2018-05-13T01:40:20.849Z,17.51
2018-05-13T01:41:01.373Z,17.55
2018-05-13T01:41:41.895Z,17.58
2018-05-13T01:42:22.422Z,17.54
2018-05-13T01:43:02.947Z,17.52
2018-05-13T01:43:43.473Z,17.51
2018-05-13T01:44:24.000Z,17.56
2018-05-13T01:45:04.529Z,17.55
2018-05-13T01:45:45.043Z,17.56
2018-05-13T01:46:26.248Z,17.54
2018-05-13T01:47:06.748Z,17.52
2018-05-13T01:47:46.613Z,17.52
2018-05-13T01:48:27.750Z,17.54
2018-05-13T01:49:07.651Z,17.51
2018-05-13T01:49:48.183Z,17.55
2018-05-13T01:50:28.710Z,17.54
2018-05-13T01:51:09.241Z,17.58
2018-05-13T01:51:50.749Z,17.54
2018-05-13T01:52:30.925Z,17.55
2018-05-13T01:53:11.918Z,17.58
2018-05-13T01:53:52.449Z,17.54
2018-05-13T01:54:32.981Z,17.58
2018-05-13T01:55:13.519Z,17.54
2018-05-13T01:55:54.046Z,17.54
2018-05-13T01:56:35.383Z,17.58
2018-05-13T01:57:15.908Z,17.51
2018-05-13T01:57:56.440Z,17.49
2018-05-13T01:58:36.971Z,17.44
2018-05-13T01:59:17.497Z,17.49
2018-05-13T01:59:58.034Z,17.44
2018-05-13T02:00:38.566Z,17.44
2018-05-13T02:01:19.086Z,17.46
2018-05-13T02:01:59.605Z,17.49
2018-05-13T02:02:40.759Z,17.46
2018-05-13T02:03:20.644Z,17.43
2018-05-13T02:04:01.176Z,17.43
2018-05-13T02:04:41.714Z,17.44
2018-05-13T02:05:22.249Z,17.4
2018-05-13T02:06:02.776Z,17.36
2018-05-13T02:06:43.309Z,17.34
2018-05-13T02:07:24.753Z,17.37
2018-05-13T02:08:05.255Z,17.38
2018-05-13T02:08:44.892Z,17.3
2018-05-13T02:09:25.415Z,17.36
2018-05-13T02:10:05.945Z,17.33
2018-05-13T02:10:47.251Z,17.19
2018-05-13T02:11:27.004Z,17.18
2018-05-13T02:12:07.594Z,17.18
2018-05-13T02:12:48.062Z,17.23
2018-05-13T02:13:28.592Z,17.25
2018-05-13T02:14:09.137Z,17.15
2018-05-13T02:14:49.656Z,17.19
2018-05-13T02:15:30.611Z,17.15
2018-05-13T02:16:11.139Z,17.16
2018-05-13T02:16:51.674Z,17.12
2018-05-13T02:17:32.204Z,17.14
2018-05-13T02:18:12.732Z,17.18
2018-05-13T02:18:53.759Z,17.14
2018-05-13T02:19:36.757Z,17.08
2018-05-13T02:20:16.395Z,17.07
2018-05-13T02:20:56.928Z,17.06
2018-05-13T02:21:37.455Z,17.08
2018-05-13T02:22:19.257Z,17.07
2018-05-13T02:22:59.044Z,17.07
2018-05-13T02:23:40.071Z,17.07
2018-05-13T02:24:20.604Z,17.11
2018-05-13T02:25:01.134Z,17.07
2018-05-13T02:25:41.691Z,17.03
2018-05-13T02:26:22.168Z,17.07
2018-05-13T02:27:03.258Z,17.04
2018-05-13T02:27:43.200Z,17.04
2018-05-13T02:28:23.731Z,17.06
2018-05-13T02:29:04.264Z,17.07
2018-05-13T02:29:44.791Z,17.01
2018-05-13T02:30:26.258Z,17.06
2018-05-13T02:31:06.641Z,17.01
2018-05-13T02:31:47.169Z,17.04
2018-05-13T02:32:27.698Z,17.07
2018-05-13T02:33:08.232Z,17.07
2018-05-13T02:33:48.755Z,17.06
2018-05-13T02:34:29.267Z,17
2018-05-13T02:35:09.793Z,16.96
2018-05-13T02:35:50.315Z,16.96
2018-05-13T02:36:30.842Z,17.03
2018-05-13T02:37:11.370Z,16.97
2018-05-13T02:37:51.896Z,16.97
2018-05-13T02:38:32.430Z,16.96
2018-05-13T02:39:13.762Z,16.93
2018-05-13T02:39:53.486Z,16.94
2018-05-13T02:40:34.015Z,16.86
2018-05-13T02:41:15.263Z,16.86
2018-05-13T02:41:55.759Z,16.85
2018-05-13T02:42:35.571Z,16.82
2018-05-13T02:43:16.097Z,16.75
2018-05-13T02:43:56.628Z,16.85
2018-05-13T02:44:37.146Z,16.76
2018-05-13T02:45:17.680Z,16.78
2018-05-13T02:45:59.266Z,16.68
2018-05-13T02:46:41.758Z,16.68
2018-05-13T02:47:21.323Z,16.67
2018-05-13T02:48:01.868Z,16.7
2018-05-13T02:48:42.386Z,16.67
2018-05-13T02:49:22.889Z,16.7
2018-05-13T02:50:03.417Z,16.7
2018-05-13T02:50:43.935Z,16.6
2018-05-13T02:51:24.465Z,16.66
2018-05-13T02:52:05.018Z,16.6
2018-05-13T02:52:46.267Z,16.57
2018-05-13T02:53:26.783Z,16.57
2018-05-13T02:54:07.332Z,16.63
2018-05-13T02:54:47.863Z,16.56
2018-05-13T02:55:28.399Z,16.57
2018-05-13T02:56:09.764Z,16.64
2018-05-13T02:56:52.121Z,16.53
2018-05-13T02:57:32.650Z,16.53
2018-05-13T02:58:13.183Z,16.53
2018-05-13T02:58:53.714Z,16.52
2018-05-13T02:59:34.249Z,16.48
2018-05-13T03:00:16.268Z,16.52
2018-05-13T03:00:56.257Z,16.48
2018-05-13T03:01:37.764Z,16.52
2018-05-13T03:02:17.305Z,16.48
2018-05-13T03:02:57.840Z,16.45
2018-05-13T03:03:38.362Z,16.42
2018-05-13T03:04:18.884Z,16.43
2018-05-13T03:04:59.418Z,16.41
2018-05-13T03:05:39.947Z,16.38
2018-05-13T03:06:20.470Z,16.3
2018-05-13T03:07:00.998Z,16.28
2018-05-13T03:07:41.637Z,16.31
2018-05-13T03:08:22.174Z,16.28
2018-05-13T03:09:02.924Z,16.3
2018-05-13T03:09:44.273Z,16.28
2018-05-13T03:10:23.968Z,16.25
2018-05-13T03:11:04.483Z,16.3
2018-05-13T03:11:46.263Z,16.25
2018-05-13T03:12:26.429Z,16.21
2018-05-13T03:13:06.963Z,16.25
2018-05-13T03:13:47.473Z,16.33
2018-05-13T03:14:29.267Z,16.15
2018-05-13T03:15:09.284Z,16.15
2018-05-13T03:15:49.816Z,16.21
2018-05-13T03:16:30.339Z,16.12
2018-05-13T03:17:10.867Z,16.23
2018-05-13T03:17:51.397Z,16.11
2018-05-13T03:18:31.926Z,16.14
2018-05-13T03:19:13.271Z,16.14
2018-05-13T03:19:52.984Z,16.12
2018-05-13T03:20:33.512Z,16.11
2018-05-13T03:21:14.040Z,16.12
2018-05-13T03:21:54.557Z,16.04
2018-05-13T03:22:35.085Z,16.17
2018-05-13T03:23:15.749Z,16.09
2018-05-13T03:23:56.281Z,16.12
2018-05-13T03:24:37.734Z,16.15
2018-05-13T03:25:18.352Z,16.14
2018-05-13T03:25:58.880Z,16.15
2018-05-13T03:26:39.393Z,16.12
2018-05-13T03:27:20.768Z,16.12
2018-05-13T03:28:00.444Z,16.02
2018-05-13T03:28:40.967Z,16.05
2018-05-13T03:29:21.499Z,16.14
2018-05-13T03:30:02.041Z,16.12
2018-05-13T03:30:42.553Z,16.07
2018-05-13T03:31:23.081Z,16.02
2018-05-13T03:32:03.606Z,16.01
2018-05-13T03:32:44.141Z,16.14
2018-05-13T03:33:25.768Z,16.02
2018-05-13T03:34:05.752Z,16.05
2018-05-13T03:34:46.289Z,16.12
2018-05-13T03:35:26.803Z,16.08
2018-05-13T03:36:07.330Z,16.01
2018-05-13T03:36:47.856Z,15.97
2018-05-13T03:37:28.387Z,16.07
2018-05-13T03:38:08.920Z,16.07
2018-05-13T03:38:49.451Z,15.97
2018-05-13T03:39:30.011Z,16.07
2018-05-13T03:40:11.408Z,16.09
2018-05-13T03:40:51.956Z,16.02
2018-05-13T03:41:32.453Z,16.07
2018-05-13T03:42:13.773Z,15.93
2018-05-13T03:42:54.276Z,15.89
2018-05-13T03:43:34.832Z,15.9
2018-05-13T03:44:15.363Z,15.96
2018-05-13T03:44:55.911Z,15.97
2018-05-13T03:45:36.409Z,15.93
2018-05-13T03:46:16.930Z,15.9
2018-05-13T03:46:57.464Z,15.96
2018-05-13T03:47:37.992Z,15.89
2018-05-13T03:48:19.272Z,15.97
2018-05-13T03:48:59.027Z,16.07
2018-05-13T03:49:39.555Z,16.02
2018-05-13T03:50:20.087Z,15.9
2018-05-13T03:51:00.620Z,16.05
2018-05-13T03:51:41.151Z,15.97
2018-05-13T03:52:21.676Z,16.04
2018-05-13T03:53:02.205Z,16.08
2018-05-13T03:53:42.735Z,16.12
2018-05-13T03:54:23.262Z,16
2018-05-13T03:55:03.782Z,16.09
2018-05-13T03:55:44.786Z,16.12
2018-05-13T03:56:25.340Z,16.05
2018-05-13T03:57:05.854Z,16.08
2018-05-13T03:57:47.272Z,16.08
2018-05-13T03:58:26.903Z,16.08
2018-05-13T03:59:07.433Z,16.09
2018-05-13T03:59:47.967Z,16.09
2018-05-13T04:00:28.493Z,16
2018-05-13T04:01:09.016Z,16.04
2018-05-13T04:01:49.542Z,16.14
2018-05-13T04:02:30.071Z,16.07
2018-05-13T04:03:10.595Z,16.02
2018-05-13T04:03:51.132Z,16.07
2018-05-13T04:04:31.663Z,16.04
2018-05-13T04:05:12.168Z,16.05
2018-05-13T04:05:52.693Z,16
2018-05-13T04:06:33.218Z,15.87
2018-05-13T04:07:13.762Z,15.94
2018-05-13T04:07:54.253Z,15.9
2018-05-13T04:08:34.787Z,16
2018-05-13T04:09:15.319Z,15.89
2018-05-13T04:09:55.829Z,16
2018-05-13T04:10:36.358Z,16.08
2018-05-13T04:11:16.881Z,16.04
2018-05-13T04:11:58.273Z,16.04
2018-05-13T04:12:37.939Z,16.11
2018-05-13T04:13:18.462Z,16.11
2018-05-13T04:13:58.988Z,16
2018-05-13T04:14:39.518Z,16.01
2018-05-13T04:15:20.053Z,16.04
2018-05-13T04:16:00.580Z,16.07
2018-05-13T04:16:41.774Z,16.14
2018-05-13T04:17:22.276Z,16.04
2018-05-13T04:18:02.842Z,16.17
2018-05-13T04:18:43.376Z,16.17
2018-05-13T04:19:24.414Z,16.12
2018-05-13T04:20:04.941Z,16.09
2018-05-13T04:20:46.253Z,16.11
2018-05-13T04:21:26.782Z,16.15
2018-05-13T04:22:07.309Z,16.11
2018-05-13T04:22:47.841Z,16.05
2018-05-13T04:23:29.099Z,16.12
2018-05-13T04:24:10.414Z,16.14
2018-05-13T04:24:50.983Z,16.07
2018-05-13T04:25:31.503Z,16.09
2018-05-13T04:26:12.032Z,16.09
2018-05-13T04:26:52.555Z,16.09
2018-05-13T04:27:33.077Z,16.17
2018-05-13T04:28:15.778Z,16.04
2018-05-13T04:28:54.957Z,16.09
2018-05-13T04:29:35.509Z,16.09
2018-05-13T04:30:16.007Z,16.2
2018-05-13T04:30:56.537Z,16.17
2018-05-13T04:31:37.071Z,16.2
2018-05-13T04:32:17.627Z,16.23
2018-05-13T04:32:58.187Z,16.28
2018-05-13T04:33:39.280Z,16.25
2018-05-13T04:34:19.224Z,16.25
2018-05-13T04:34:59.763Z,16.3
2018-05-13T04:35:40.280Z,16.25
2018-05-13T04:36:20.804Z,16.3
2018-05-13T04:37:01.322Z,16.27
2018-05-13T04:37:41.849Z,16.43
2018-05-13T04:38:23.014Z,16.34
2018-05-13T04:39:03.544Z,16.41
2018-05-13T04:39:44.073Z,16.45
2018-05-13T04:40:24.594Z,16.45
2018-05-13T04:41:06.803Z,16.43
2018-05-13T04:41:47.331Z,16.46
2018-05-13T04:42:27.872Z,16.53
2018-05-13T04:43:08.409Z,16.49
2018-05-13T04:43:48.941Z,16.49
2018-05-13T04:44:29.471Z,16.46
2018-05-13T04:45:10.003Z,16.66
2018-05-13T04:45:50.533Z,16.56
2018-05-13T04:46:31.349Z,16.6
2018-05-13T04:47:11.821Z,16.56
2018-05-13T04:47:52.357Z,16.57
2018-05-13T04:48:32.928Z,16.61
2018-05-13T04:49:13.467Z,16.66
2018-05-13T04:49:54.782Z,16.61
2018-05-13T04:50:34.506Z,16.7
2018-05-13T04:51:15.035Z,16.68
2018-05-13T04:51:55.556Z,16.63
2018-05-13T04:52:37.220Z,16.73
2018-05-13T04:53:17.529Z,16.76
2018-05-13T04:53:58.081Z,16.78
2018-05-13T04:54:39.517Z,16.79
2018-05-13T04:55:20.547Z,16.85
2018-05-13T04:56:01.074Z,16.86
2018-05-13T04:56:41.601Z,16.91
2018-05-13T04:57:22.136Z,16.89
2018-05-13T04:58:02.658Z,16.96
2018-05-13T04:58:43.187Z,17.03
2018-05-13T04:59:23.710Z,16.97
2018-05-13T05:00:04.249Z,17.04
2018-05-13T05:00:44.748Z,17.01
2018-05-13T05:01:25.276Z,17.04
2018-05-13T05:02:05.803Z,17.16
2018-05-13T05:02:47.280Z,17.23
2018-05-13T05:03:26.842Z,17.26
2018-05-13T05:04:07.366Z,17.19
2018-05-13T05:04:47.883Z,17.33
2018-05-13T05:05:29.283Z,17.3
2018-05-13T05:06:09.786Z,17.37
2018-05-13T05:06:49.512Z,17.43
2018-05-13T05:07:30.045Z,17.48
2018-05-13T05:08:10.564Z,17.52
2018-05-13T05:08:51.256Z,17.55
2018-05-13T05:09:32.980Z,17.63
2018-05-13T05:10:13.615Z,17.66
2018-05-13T05:10:54.210Z,17.56
2018-05-13T05:11:34.735Z,17.7
2018-05-13T05:12:15.262Z,17.75
2018-05-13T05:12:55.793Z,17.78
2018-05-13T05:13:36.349Z,17.77
2018-05-13T05:14:16.990Z,17.77
2018-05-13T05:14:58.285Z,17.9
2018-05-13T05:15:38.786Z,17.82
2018-05-13T05:16:18.684Z,17.89
2018-05-13T05:16:59.431Z,17.95
2018-05-13T05:17:41.035Z,18.03
2018-05-13T05:18:22.557Z,17.99
2018-05-13T05:19:03.323Z,18.07
2018-05-13T05:19:43.926Z,18.14
2018-05-13T05:20:24.594Z,18.15
2018-05-13T05:21:05.179Z,18.23
2018-05-13T05:21:45.932Z,18.21
2018-05-13T05:22:26.492Z,18.26
2018-05-13T05:23:07.061Z,18.35
2018-05-13T05:23:47.839Z,18.27
2018-05-13T05:24:29.285Z,18.37
2018-05-13T05:25:11.286Z,18.36
2018-05-13T05:25:50.456Z,18.44
2018-05-13T05:26:30.987Z,18.51
2018-05-13T05:27:11.471Z,18.52
2018-05-13T05:27:51.983Z,18.5
2018-05-13T05:28:33.318Z,18.45
2018-05-13T05:29:13.038Z,18.55
2018-05-13T05:29:53.572Z,18.55
2018-05-13T05:30:35.061Z,18.63
2018-05-13T05:31:15.568Z,18.66
2018-05-13T05:31:57.291Z,18.72
2018-05-13T05:32:37.138Z,18.73
2018-05-13T05:33:17.657Z,18.78
2018-05-13T05:33:58.811Z,18.82
2018-05-13T05:34:39.347Z,18.87
2018-05-13T05:35:19.889Z,18.91
2018-05-13T05:36:00.439Z,19.07
2018-05-13T05:36:40.956Z,19.04
2018-05-13T05:37:22.058Z,19
2018-05-13T05:38:03.290Z,19.11
2018-05-13T05:38:43.820Z,19.14
2018-05-13T05:39:24.331Z,19.21
2018-05-13T05:40:04.854Z,19.32
2018-05-13T05:40:46.289Z,19.36
2018-05-13T05:41:25.896Z,19.44
2018-05-13T05:42:06.398Z,19.5
2018-05-13T05:42:46.924Z,19.51
2018-05-13T05:43:27.456Z,19.66
2018-05-13T05:44:08.788Z,19.63
2018-05-13T05:44:48.499Z,19.76
2018-05-13T05:45:29.794Z,19.76
2018-05-13T05:46:10.463Z,19.74
2018-05-13T05:46:50.993Z,19.98
2018-05-13T05:47:31.551Z,20.01
2018-05-13T05:48:12.080Z,20.14
2018-05-13T05:48:53.289Z,20.17
2018-05-13T05:49:33.122Z,20.35
2018-05-13T05:50:14.291Z,20.48
2018-05-13T05:50:54.793Z,20.61
2018-05-13T05:51:34.683Z,20.77
2018-05-13T05:52:15.209Z,20.98
2018-05-13T05:52:55.731Z,21.13
2018-05-13T05:53:36.267Z,21.27
2018-05-13T05:54:16.793Z,21.52
2018-05-13T05:54:57.297Z,21.64
2018-05-13T05:55:37.843Z,21.84
2018-05-13T05:56:18.371Z,21.99
2018-05-13T05:56:58.891Z,22.25
2018-05-13T05:57:39.420Z,22.39
2018-05-13T05:58:19.952Z,22.49
2018-05-13T05:59:00.485Z,22.8
2018-05-13T05:59:41.007Z,23.02
2018-05-13T06:00:21.540Z,23.17
2018-05-13T06:01:02.072Z,23.46
2018-05-13T06:01:42.584Z,23.53
2018-05-13T06:02:23.792Z,23.66
2018-05-13T06:03:03.635Z,23.76
2018-05-13T06:03:44.172Z,23.93
2018-05-13T06:04:25.616Z,24.12
2018-05-13T06:05:06.148Z,24.2
2018-05-13T06:05:47.299Z,24.35
2018-05-13T06:06:27.220Z,24.57
2018-05-13T06:07:07.749Z,24.67
2018-05-13T06:07:48.277Z,24.83
2018-05-13T06:08:28.801Z,24.96
2018-05-13T06:09:09.563Z,25.05
2018-05-13T06:09:50.802Z,25.3
2018-05-13T06:10:30.601Z,25.33
2018-05-13T06:11:11.130Z,25.39
2018-05-13T06:11:51.655Z,25.51
2018-05-13T06:12:32.181Z,25.62
2018-05-13T06:13:12.712Z,25.73
2018-05-13T06:13:53.236Z,25.79
2018-05-13T06:14:34.083Z,25.95
2018-05-13T06:15:14.620Z,25.91
2018-05-13T06:15:55.156Z,26.06
2018-05-13T06:16:35.729Z,26.21
2018-05-13T06:17:16.800Z,26.35
2018-05-13T06:17:56.899Z,26.4
2018-05-13T06:18:37.664Z,26.43
2018-05-13T06:19:18.255Z,26.54
2018-05-13T06:19:59.100Z,26.72
2018-05-13T06:20:39.396Z,26.77
2018-05-13T06:21:19.934Z,26.89
2018-05-13T06:22:00.471Z,26.92
2018-05-13T06:22:40.987Z,27
2018-05-13T06:23:21.808Z,27.14
2018-05-13T06:24:02.054Z,27.27
2018-05-13T06:24:42.587Z,27.37
2018-05-13T06:25:23.387Z,27.49
2018-05-13T06:26:03.701Z,27.5
2018-05-13T06:26:44.248Z,27.66
2018-05-13T06:27:24.766Z,27.74
2018-05-13T06:28:05.803Z,27.79
2018-05-13T06:28:46.306Z,27.93
2018-05-13T06:29:26.881Z,28
2018-05-13T06:30:08.563Z,28.02
2018-05-13T06:30:49.052Z,28.14
2018-05-13T06:31:29.601Z,28.21
2018-05-13T06:32:10.164Z,28.27
2018-05-13T06:32:50.672Z,28.41
2018-05-13T06:33:31.815Z,28.43
2018-05-13T06:34:11.695Z,28.49
2018-05-13T06:34:52.516Z,28.61
2018-05-13T06:35:33.059Z,28.67
2018-05-13T06:36:13.754Z,28.71
2018-05-13T06:36:54.584Z,28.88
2018-05-13T06:37:35.108Z,28.89
2018-05-13T06:38:16.009Z,28.98
2018-05-13T06:38:56.555Z,29.05
2018-05-13T06:39:37.225Z,29.14
2018-05-13T06:40:18.112Z,29.18
2018-05-13T06:40:58.634Z,29.28
2018-05-13T06:41:39.148Z,29.37
2018-05-13T06:42:19.921Z,29.48
2018-05-13T06:43:00.433Z,29.67
2018-05-13T06:43:40.953Z,29.7
2018-05-13T06:44:21.668Z,29.98
2018-05-13T06:45:02.238Z,30.02
2018-05-13T06:45:43.456Z,30.22
2018-05-13T06:46:24.000Z,30.19
2018-05-13T06:47:04.658Z,30.39
2018-05-13T06:47:45.814Z,30.62
2018-05-13T06:48:26.841Z,30.77
2018-05-13T06:49:07.383Z,30.98
2018-05-13T06:49:48.649Z,31.19
2018-05-13T06:50:29.191Z,31.38
2018-05-13T06:51:10.826Z,31.63
2018-05-13T06:51:50.581Z,31.93
2018-05-13T06:52:31.088Z,32.15
2018-05-13T06:53:11.583Z,32.65
2018-05-13T06:53:52.124Z,33
2018-05-13T06:54:32.656Z,33.47
2018-05-13T06:55:13.189Z,33.88
2018-05-13T06:55:54.019Z,34.13
2018-05-13T06:56:34.551Z,34.44
2018-05-13T06:57:15.103Z,34.61
2018-05-13T06:57:55.718Z,34.7
2018-05-13T06:58:36.341Z,34.78
2018-05-13T06:59:17.694Z,34.8
2018-05-13T06:59:58.238Z,34.94
2018-05-13T07:00:38.783Z,34.99
2018-05-13T07:01:19.955Z,35.06
2018-05-13T07:02:00.513Z,35.06
2018-05-13T07:02:41.060Z,35.03
2018-05-13T07:03:21.587Z,34.99
2018-05-13T07:04:02.101Z,34.99
2018-05-13T07:04:42.639Z,35.11
2018-05-13T07:05:23.530Z,35.22
2018-05-13T07:06:04.060Z,35.44
2018-05-13T07:06:44.585Z,35.82
2018-05-13T07:07:26.821Z,36.25
2018-05-13T07:08:08.323Z,36.73
